sensor_id;sensor_type;location;lat;lon;timestamp;temperature;humidity
22319;DHT22;11327;52.334;9.506;2022-11-15T00:02:55;6.70;99.90
22319;DHT22;11327;52.334;9.506;2022-11-15T00:06:16;6.70;99.90
22319;DHT22;11327;52.334;9.506;2022-11-15T00:09:37;6.60;99.90
22319;DHT22;11327;52.334;9.506;2022-11-15T00:12:58;6.60;99.90
22319;DHT22;11327;52.334;9.506;2022-11-15T00:16:19;6.50;99.90
22319;DHT22;11327;52.334;9.506;2022-11-15T00:19:40;6.50;99.90
22319;DHT22;11327;52.334;9.506;2022-11-15T00:23:03;6.60;99.90
22319;DHT22;11327;52.334;9.506;2022-11-15T00:26:24;6.50;99.90
22319;DHT22;11327;52.334;9.506;2022-11-15T00:29:45;6.60;99.90
22319;DHT22;11327;52.334;9.506;2022-11-15T00:33:06;6.70;99.90
22319;DHT22;11327;52.334;9.506;2022-11-15T00:36:27;6.70;99.90
22319;DHT22;11327;52.334;9.506;2022-11-15T00:39:48;6.70;99.90
22319;DHT22;11327;52.334;9.506;2022-11-15T00:43:10;6.80;99.90
22319;DHT22;11327;52.334;9.506;2022-11-15T00:46:31;6.70;99.90
22319;DHT22;11327;52.334;9.506;2022-11-15T00:49:52;6.80;99.90
22319;DHT22;11327;52.334;9.506;2022-11-15T00:53:12;6.90;99.90
22319;DHT22;11327;52.334;9.506;2022-11-15T00:56:33;7.00;99.90
22319;DHT22;11327;52.334;9.506;2022-11-15T00:59:54;7.10;99.90
22319;DHT22;11327;52.334;9.506;2022-11-15T01:03:15;7.20;99.90
22319;DHT22;11327;52.334;9.506;2022-11-15T01:06:36;7.40;99.90
22319;DHT22;11327;52.334;9.506;2022-11-15T01:09:57;7.70;99.90
22319;DHT22;11327;52.334;9.506;2022-11-15T01:13:18;7.90;99.90
22319;DHT22;11327;52.334;9.506;2022-11-15T01:16:39;8.10;99.90
22319;DHT22;11327;52.334;9.506;2022-11-15T01:20:00;8.20;99.90
22319;DHT22;11327;52.334;9.506;2022-11-15T01:23:21;8.30;99.90
22319;DHT22;11327;52.334;9.506;2022-11-15T01:26:42;8.50;99.90
22319;DHT22;11327;52.334;9.506;2022-11-15T01:30:04;8.90;99.90
22319;DHT22;11327;52.334;9.506;2022-11-15T01:33:26;9.00;99.90
22319;DHT22;11327;52.334;9.506;2022-11-15T01:36:47;9.20;99.90
22319;DHT22;11327;52.334;9.506;2022-11-15T01:40:09;9.30;99.90
22319;DHT22;11327;52.334;9.506;2022-11-15T01:43:36;9.40;99.90
22319;DHT22;11327;52.334;9.506;2022-11-15T01:46:54;9.50;99.90
22319;DHT22;11327;52.334;9.506;2022-11-15T01:50:18;9.70;99.90
22319;DHT22;11327;52.334;9.506;2022-11-15T01:53:42;10.10;99.90
22319;DHT22;11327;52.334;9.506;2022-11-15T01:57:09;10.30;99.90
22319;DHT22;11327;52.334;9.506;2022-11-15T02:00:31;10.20;99.90
22319;DHT22;11327;52.334;9.506;2022-11-15T02:03:56;10.20;99.90
22319;DHT22;11327;52.334;9.506;2022-11-15T02:07:18;10.40;99.90
22319;DHT22;11327;52.334;9.506;2022-11-15T02:10:40;10.50;99.90
22319;DHT22;11327;52.334;9.506;2022-11-15T02:14:03;10.60;99.90
22319;DHT22;11327;52.334;9.506;2022-11-15T02:17:31;10.60;99.90
22319;DHT22;11327;52.334;9.506;2022-11-15T02:24:49;10.40;99.90
22319;DHT22;11327;52.334;9.506;2022-11-15T02:32:04;10.40;99.90
22319;DHT22;11327;52.334;9.506;2022-11-15T02:35:49;10.40;99.90
22319;DHT22;11327;52.334;9.506;2022-11-15T02:39:18;10.30;99.90
22319;DHT22;11327;52.334;9.506;2022-11-15T02:42:41;10.30;99.90
22319;DHT22;11327;52.334;9.506;2022-11-15T02:46:33;10.30;99.90
22319;DHT22;11327;52.334;9.506;2022-11-15T02:50:13;10.30;99.90
22319;DHT22;11327;52.334;9.506;2022-11-15T02:53:35;10.20;99.90
22319;DHT22;11327;52.334;9.506;2022-11-15T02:57:00;10.20;99.90
22319;DHT22;11327;52.334;9.506;2022-11-15T03:00:21;10.10;99.90
22319;DHT22;11327;52.334;9.506;2022-11-15T03:04:02;10.20;99.90
22319;DHT22;11327;52.334;9.506;2022-11-15T03:11:15;10.20;99.90
22319;DHT22;11327;52.334;9.506;2022-11-15T03:14:36;10.30;99.90
22319;DHT22;11327;52.334;9.506;2022-11-15T03:18:03;10.40;99.90
22319;DHT22;11327;52.334;9.506;2022-11-15T03:21:25;10.60;99.90
22319;DHT22;11327;52.334;9.506;2022-11-15T03:24:55;10.80;99.90
22319;DHT22;11327;52.334;9.506;2022-11-15T03:28:21;11.00;99.90
22319;DHT22;11327;52.334;9.506;2022-11-15T03:31:44;11.30;99.90
22319;DHT22;11327;52.334;9.506;2022-11-15T03:35:16;11.40;99.90
22319;DHT22;11327;52.334;9.506;2022-11-15T03:38:38;11.60;99.90
22319;DHT22;11327;52.334;9.506;2022-11-15T03:45:50;11.90;99.90
22319;DHT22;11327;52.334;9.506;2022-11-15T03:49:20;12.00;99.90
22319;DHT22;11327;52.334;9.506;2022-11-15T03:52:41;12.00;99.90
22319;DHT22;11327;52.334;9.506;2022-11-15T03:56:03;12.00;99.90
22319;DHT22;11327;52.334;9.506;2022-11-15T03:59:24;12.10;99.90
22319;DHT22;11327;52.334;9.506;2022-11-15T04:02:45;12.20;99.90
22319;DHT22;11327;52.334;9.506;2022-11-15T04:06:06;12.20;99.90
22319;DHT22;11327;52.334;9.506;2022-11-15T04:09:27;12.20;99.90
22319;DHT22;11327;52.334;9.506;2022-11-15T04:12:48;12.30;99.90
22319;DHT22;11327;52.334;9.506;2022-11-15T04:16:09;12.30;99.90
22319;DHT22;11327;52.334;9.506;2022-11-15T04:19:30;12.20;99.90
22319;DHT22;11327;52.334;9.506;2022-11-15T04:26:55;12.20;99.90
22319;DHT22;11327;52.334;9.506;2022-11-15T04:30:16;12.10;99.90
22319;DHT22;11327;52.334;9.506;2022-11-15T04:33:37;12.10;99.90
22319;DHT22;11327;52.334;9.506;2022-11-15T04:36:58;12.10;99.90
22319;DHT22;11327;52.334;9.506;2022-11-15T04:40:36;12.00;99.90
22319;DHT22;11327;52.334;9.506;2022-11-15T04:43:57;11.90;99.90
22319;DHT22;11327;52.334;9.506;2022-11-15T04:47:18;11.90;99.90
22319;DHT22;11327;52.334;9.506;2022-11-15T04:50:39;11.80;99.90
22319;DHT22;11327;52.334;9.506;2022-11-15T04:54:00;11.90;99.90
22319;DHT22;11327;52.334;9.506;2022-11-15T04:57:21;11.80;99.90
22319;DHT22;11327;52.334;9.506;2022-11-15T05:00:42;11.90;99.90
22319;DHT22;11327;52.334;9.506;2022-11-15T05:04:03;11.80;99.90
22319;DHT22;11327;52.334;9.506;2022-11-15T05:07:39;11.50;99.90
22319;DHT22;11327;52.334;9.506;2022-11-15T05:11:00;11.40;99.90
22319;DHT22;11327;52.334;9.506;2022-11-15T05:14:21;11.40;99.90
22319;DHT22;11327;52.334;9.506;2022-11-15T05:17:42;11.30;99.90
22319;DHT22;11327;52.334;9.506;2022-11-15T05:21:05;11.20;99.90
22319;DHT22;11327;52.334;9.506;2022-11-15T05:24:26;11.10;99.90
22319;DHT22;11327;52.334;9.506;2022-11-15T05:27:47;11.10;99.90
22319;DHT22;11327;52.334;9.506;2022-11-15T05:31:14;11.00;99.90
22319;DHT22;11327;52.334;9.506;2022-11-15T05:34:32;11.00;99.90
22319;DHT22;11327;52.334;9.506;2022-11-15T05:37:53;11.00;99.90
22319;DHT22;11327;52.334;9.506;2022-11-15T05:41:15;11.00;99.90
22319;DHT22;11327;52.334;9.506;2022-11-15T05:44:40;11.00;99.90
22319;DHT22;11327;52.334;9.506;2022-11-15T05:48:04;11.00;99.90
22319;DHT22;11327;52.334;9.506;2022-11-15T05:51:28;11.00;99.90
22319;DHT22;11327;52.334;9.506;2022-11-15T05:54:50;11.10;99.90
22319;DHT22;11327;52.334;9.506;2022-11-15T05:58:11;11.20;99.90
22319;DHT22;11327;52.334;9.506;2022-11-15T06:01:32;11.20;99.90
22319;DHT22;11327;52.334;9.506;2022-11-15T06:04:53;11.10;99.90
22319;DHT22;11327;52.334;9.506;2022-11-15T06:08:14;11.20;99.90
22319;DHT22;11327;52.334;9.506;2022-11-15T06:11:35;11.10;99.90
22319;DHT22;11327;52.334;9.506;2022-11-15T06:14:56;11.10;99.90
22319;DHT22;11327;52.334;9.506;2022-11-15T06:18:17;11.20;99.90
22319;DHT22;11327;52.334;9.506;2022-11-15T06:21:38;11.30;99.90
22319;DHT22;11327;52.334;9.506;2022-11-15T06:24:59;11.40;99.90
22319;DHT22;11327;52.334;9.506;2022-11-15T06:28:20;11.50;99.90
22319;DHT22;11327;52.334;9.506;2022-11-15T06:31:41;11.50;99.90
22319;DHT22;11327;52.334;9.506;2022-11-15T06:35:02;11.50;99.90
22319;DHT22;11327;52.334;9.506;2022-11-15T06:38:23;11.60;99.90
22319;DHT22;11327;52.334;9.506;2022-11-15T06:41:44;11.70;99.90
22319;DHT22;11327;52.334;9.506;2022-11-15T06:45:05;11.70;99.90
22319;DHT22;11327;52.334;9.506;2022-11-15T06:48:27;11.70;99.90
22319;DHT22;11327;52.334;9.506;2022-11-15T06:51:49;11.70;99.90
22319;DHT22;11327;52.334;9.506;2022-11-15T06:55:10;11.60;99.90
22319;DHT22;11327;52.334;9.506;2022-11-15T06:58:31;11.60;99.90
22319;DHT22;11327;52.334;9.506;2022-11-15T07:01:52;11.60;99.90
22319;DHT22;11327;52.334;9.506;2022-11-15T07:05:13;11.50;99.90
22319;DHT22;11327;52.334;9.506;2022-11-15T07:08:35;11.50;99.90
22319;DHT22;11327;52.334;9.506;2022-11-15T07:11:56;11.60;99.90
22319;DHT22;11327;52.334;9.506;2022-11-15T07:15:18;11.50;99.90
22319;DHT22;11327;52.334;9.506;2022-11-15T07:18:40;11.60;99.90
22319;DHT22;11327;52.334;9.506;2022-11-15T07:22:01;11.60;99.90
22319;DHT22;11327;52.334;9.506;2022-11-15T07:25:22;11.60;99.90
22319;DHT22;11327;52.334;9.506;2022-11-15T07:28:43;11.50;99.90
22319;DHT22;11327;52.334;9.506;2022-11-15T07:32:04;11.40;99.90
22319;DHT22;11327;52.334;9.506;2022-11-15T07:35:26;11.40;99.90
22319;DHT22;11327;52.334;9.506;2022-11-15T07:38:47;11.40;99.90
22319;DHT22;11327;52.334;9.506;2022-11-15T07:42:08;11.40;99.90
22319;DHT22;11327;52.334;9.506;2022-11-15T07:45:48;11.40;99.90
22319;DHT22;11327;52.334;9.506;2022-11-15T07:49:08;11.30;99.90
22319;DHT22;11327;52.334;9.506;2022-11-15T07:52:29;11.20;99.90
22319;DHT22;11327;52.334;9.506;2022-11-15T07:55:50;11.30;99.90
22319;DHT22;11327;52.334;9.506;2022-11-15T07:59:13;11.30;99.90
22319;DHT22;11327;52.334;9.506;2022-11-15T08:02:34;11.40;99.90
22319;DHT22;11327;52.334;9.506;2022-11-15T08:05:55;11.40;99.90
22319;DHT22;11327;52.334;9.506;2022-11-15T08:09:16;11.30;99.90
22319;DHT22;11327;52.334;9.506;2022-11-15T08:12:37;11.40;99.90
22319;DHT22;11327;52.334;9.506;2022-11-15T08:16:00;11.40;99.90
22319;DHT22;11327;52.334;9.506;2022-11-15T08:19:21;11.40;99.90
22319;DHT22;11327;52.334;9.506;2022-11-15T08:22:42;11.30;99.90
22319;DHT22;11327;52.334;9.506;2022-11-15T08:26:05;11.30;99.90
22319;DHT22;11327;52.334;9.506;2022-11-15T08:29:26;11.40;99.90
22319;DHT22;11327;52.334;9.506;2022-11-15T08:32:47;11.60;99.90
22319;DHT22;11327;52.334;9.506;2022-11-15T08:36:14;11.80;99.90
22319;DHT22;11327;52.334;9.506;2022-11-15T08:39:35;12.10;99.90
22319;DHT22;11327;52.334;9.506;2022-11-15T08:42:56;12.40;99.90
22319;DHT22;11327;52.334;9.506;2022-11-15T08:46:19;12.50;99.90
22319;DHT22;11327;52.334;9.506;2022-11-15T08:49:40;12.70;99.90
22319;DHT22;11327;52.334;9.506;2022-11-15T08:53:06;12.70;99.90
22319;DHT22;11327;52.334;9.506;2022-11-15T08:56:27;12.60;99.90
22319;DHT22;11327;52.334;9.506;2022-11-15T08:59:48;12.50;99.90
22319;DHT22;11327;52.334;9.506;2022-11-15T09:03:09;12.40;99.90
22319;DHT22;11327;52.334;9.506;2022-11-15T09:06:30;12.40;99.90
22319;DHT22;11327;52.334;9.506;2022-11-15T09:09:51;12.50;99.90
22319;DHT22;11327;52.334;9.506;2022-11-15T09:13:12;12.70;99.90
22319;DHT22;11327;52.334;9.506;2022-11-15T09:16:34;12.80;99.90
22319;DHT22;11327;52.334;9.506;2022-11-15T09:19:55;13.00;99.90
22319;DHT22;11327;52.334;9.506;2022-11-15T09:23:16;13.10;99.90
22319;DHT22;11327;52.334;9.506;2022-11-15T09:26:37;13.20;99.90
22319;DHT22;11327;52.334;9.506;2022-11-15T09:29:58;13.30;99.90
22319;DHT22;11327;52.334;9.506;2022-11-15T09:33:19;13.30;99.90
22319;DHT22;11327;52.334;9.506;2022-11-15T09:36:40;13.40;99.90
22319;DHT22;11327;52.334;9.506;2022-11-15T09:40:01;13.50;99.90
22319;DHT22;11327;52.334;9.506;2022-11-15T09:43:40;13.60;99.90
22319;DHT22;11327;52.334;9.506;2022-11-15T09:50:50;13.80;99.90
22319;DHT22;11327;52.334;9.506;2022-11-15T09:57:54;14.10;99.90
22319;DHT22;11327;52.334;9.506;2022-11-15T10:01:25;14.20;99.90
22319;DHT22;11327;52.334;9.506;2022-11-15T10:04:41;14.50;99.90
22319;DHT22;11327;52.334;9.506;2022-11-15T10:11:54;14.80;99.90
22319;DHT22;11327;52.334;9.506;2022-11-15T10:15:17;14.90;99.90
22319;DHT22;11327;52.334;9.506;2022-11-15T10:18:50;15.00;99.90
22319;DHT22;11327;52.334;9.506;2022-11-15T10:25:41;14.90;99.90
22319;DHT22;11327;52.334;9.506;2022-11-15T10:29:02;14.70;99.90
22319;DHT22;11327;52.334;9.506;2022-11-15T10:32:23;14.50;99.90
22319;DHT22;11327;52.334;9.506;2022-11-15T10:35:44;14.30;99.90
22319;DHT22;11327;52.334;9.506;2022-11-15T10:39:05;14.30;99.90
22319;DHT22;11327;52.334;9.506;2022-11-15T10:42:28;14.60;99.90
22319;DHT22;11327;52.334;9.506;2022-11-15T10:45:49;14.80;99.90
22319;DHT22;11327;52.334;9.506;2022-11-15T10:49:24;14.80;99.90
22319;DHT22;11327;52.334;9.506;2022-11-15T10:52:49;14.90;99.90
22319;DHT22;11327;52.334;9.506;2022-11-15T10:56:12;15.10;99.90
22319;DHT22;11327;52.334;9.506;2022-11-15T10:59:37;15.10;99.90
22319;DHT22;11327;52.334;9.506;2022-11-15T11:03:04;15.10;99.90
22319;DHT22;11327;52.334;9.506;2022-11-15T11:06:27;15.10;99.90
22319;DHT22;11327;52.334;9.506;2022-11-15T11:10:05;15.20;99.90
22319;DHT22;11327;52.334;9.506;2022-11-15T11:13:34;15.40;99.90
22319;DHT22;11327;52.334;9.506;2022-11-15T11:20:50;15.40;99.90
22319;DHT22;11327;52.334;9.506;2022-11-15T11:43:58;15.30;99.90
22319;DHT22;11327;52.334;9.506;2022-11-15T11:47:22;15.20;99.90
22319;DHT22;11327;52.334;9.506;2022-11-15T11:50:44;15.20;99.90
22319;DHT22;11327;52.334;9.506;2022-11-15T11:54:17;15.10;99.90
22319;DHT22;11327;52.334;9.506;2022-11-15T12:01:30;15.40;99.90
22319;DHT22;11327;52.334;9.506;2022-11-15T12:04:54;15.40;99.90
22319;DHT22;11327;52.334;9.506;2022-11-15T12:08:39;15.30;99.90
22319;DHT22;11327;52.334;9.506;2022-11-15T12:12:08;15.30;99.90
22319;DHT22;11327;52.334;9.506;2022-11-15T12:15:36;15.20;99.90
22319;DHT22;11327;52.334;9.506;2022-11-15T12:19:01;15.20;99.90
22319;DHT22;11327;52.334;9.506;2022-11-15T12:26:05;15.20;99.90
22319;DHT22;11327;52.334;9.506;2022-11-15T12:32:58;15.10;99.90
22319;DHT22;11327;52.334;9.506;2022-11-15T12:36:33;15.10;99.90
22319;DHT22;11327;52.334;9.506;2022-11-15T12:43:36;15.00;99.90
22319;DHT22;11327;52.334;9.506;2022-11-15T12:47:01;15.00;99.90
22319;DHT22;11327;52.334;9.506;2022-11-15T12:54:32;14.90;99.90
22319;DHT22;11327;52.334;9.506;2022-11-15T12:57:33;14.90;99.90
22319;DHT22;11327;52.334;9.506;2022-11-15T13:00:54;14.90;99.90
22319;DHT22;11327;52.334;9.506;2022-11-15T13:11:47;14.60;99.90
22319;DHT22;11327;52.334;9.506;2022-11-15T13:18:39;14.70;99.90
22319;DHT22;11327;52.334;9.506;2022-11-15T13:22:04;14.70;99.90
22319;DHT22;11327;52.334;9.506;2022-11-15T13:26:10;14.70;99.90
22319;DHT22;11327;52.334;9.506;2022-11-15T13:29:31;14.70;99.90
22319;DHT22;11327;52.334;9.506;2022-11-15T13:32:53;14.70;99.90
22319;DHT22;11327;52.334;9.506;2022-11-15T13:36:27;14.60;99.90
22319;DHT22;11327;52.334;9.506;2022-11-15T13:39:49;14.40;99.90
22319;DHT22;11327;52.334;9.506;2022-11-15T13:46:44;14.30;99.90
22319;DHT22;11327;52.334;9.506;2022-11-15T13:50:06;14.10;99.90
22319;DHT22;11327;52.334;9.506;2022-11-15T13:53:28;14.00;99.90
22319;DHT22;11327;52.334;9.506;2022-11-15T14:03:57;13.90;99.90
22319;DHT22;11327;52.334;9.506;2022-11-15T14:07:22;13.80;99.90
22319;DHT22;11327;52.334;9.506;2022-11-15T14:10:43;13.70;99.90
22319;DHT22;11327;52.334;9.506;2022-11-15T14:17:35;13.50;99.90
22319;DHT22;11327;52.334;9.506;2022-11-15T14:21:08;13.50;99.90
22319;DHT22;11327;52.334;9.506;2022-11-15T14:24:30;13.40;99.90
22319;DHT22;11327;52.334;9.506;2022-11-15T14:31:45;13.30;99.90
22319;DHT22;11327;52.334;9.506;2022-11-15T14:35:14;13.20;99.90
22319;DHT22;11327;52.334;9.506;2022-11-15T14:38:34;13.20;99.90
22319;DHT22;11327;52.334;9.506;2022-11-15T14:41:55;13.20;99.90
22319;DHT22;11327;52.334;9.506;2022-11-15T14:45:19;13.10;99.90
22319;DHT22;11327;52.334;9.506;2022-11-15T14:48:40;13.10;99.90
22319;DHT22;11327;52.334;9.506;2022-11-15T14:52:01;13.00;99.90
22319;DHT22;11327;52.334;9.506;2022-11-15T14:55:25;12.90;99.90
22319;DHT22;11327;52.334;9.506;2022-11-15T14:58:47;12.80;99.90
22319;DHT22;11327;52.334;9.506;2022-11-15T15:02:20;12.70;99.90
22319;DHT22;11327;52.334;9.506;2022-11-15T15:05:43;12.60;99.90
22319;DHT22;11327;52.334;9.506;2022-11-15T15:09:04;12.60;99.90
22319;DHT22;11327;52.334;9.506;2022-11-15T15:12:25;12.50;99.90
22319;DHT22;11327;52.334;9.506;2022-11-15T15:15:47;12.50;99.90
22319;DHT22;11327;52.334;9.506;2022-11-15T15:19:09;12.50;99.90
22319;DHT22;11327;52.334;9.506;2022-11-15T15:22:30;12.40;99.90
22319;DHT22;11327;52.334;9.506;2022-11-15T15:25:51;12.40;99.90
22319;DHT22;11327;52.334;9.506;2022-11-15T15:29:13;12.30;99.90
22319;DHT22;11327;52.334;9.506;2022-11-15T15:32:34;12.30;99.90
22319;DHT22;11327;52.334;9.506;2022-11-15T15:35:56;12.20;99.90
22319;DHT22;11327;52.334;9.506;2022-11-15T15:39:17;12.10;99.90
22319;DHT22;11327;52.334;9.506;2022-11-15T15:42:38;12.10;99.90
22319;DHT22;11327;52.334;9.506;2022-11-15T15:45:59;12.00;99.90
22319;DHT22;11327;52.334;9.506;2022-11-15T15:49:20;11.90;99.90
22319;DHT22;11327;52.334;9.506;2022-11-15T15:52:41;11.90;99.90
22319;DHT22;11327;52.334;9.506;2022-11-15T15:56:02;11.90;99.90
22319;DHT22;11327;52.334;9.506;2022-11-15T15:59:23;11.90;99.90
22319;DHT22;11327;52.334;9.506;2022-11-15T16:02:44;12.00;99.90
22319;DHT22;11327;52.334;9.506;2022-11-15T16:06:25;11.90;99.90
22319;DHT22;11327;52.334;9.506;2022-11-15T16:09:33;11.90;99.90
22319;DHT22;11327;52.334;9.506;2022-11-15T16:13:13;11.80;99.90
22319;DHT22;11327;52.334;9.506;2022-11-15T16:16:34;11.80;99.90
22319;DHT22;11327;52.334;9.506;2022-11-15T16:19:56;11.80;99.90
22319;DHT22;11327;52.334;9.506;2022-11-15T16:23:17;11.80;99.90
22319;DHT22;11327;52.334;9.506;2022-11-15T16:26:40;11.90;99.90
22319;DHT22;11327;52.334;9.506;2022-11-15T16:30:01;12.00;99.90
22319;DHT22;11327;52.334;9.506;2022-11-15T16:33:22;12.00;99.90
22319;DHT22;11327;52.334;9.506;2022-11-15T16:36:43;11.90;99.90
22319;DHT22;11327;52.334;9.506;2022-11-15T16:40:07;11.90;99.90
22319;DHT22;11327;52.334;9.506;2022-11-15T16:43:28;11.90;99.90
22319;DHT22;11327;52.334;9.506;2022-11-15T16:46:49;12.00;99.90
22319;DHT22;11327;52.334;9.506;2022-11-15T16:50:26;12.00;99.90
22319;DHT22;11327;52.334;9.506;2022-11-15T16:53:45;12.10;99.90
22319;DHT22;11327;52.334;9.506;2022-11-15T16:57:08;12.10;99.90
22319;DHT22;11327;52.334;9.506;2022-11-15T17:00:29;12.10;99.90
22319;DHT22;11327;52.334;9.506;2022-11-15T17:03:51;12.00;99.90
22319;DHT22;11327;52.334;9.506;2022-11-15T17:07:12;12.00;99.90
22319;DHT22;11327;52.334;9.506;2022-11-15T17:10:33;12.00;99.90
22319;DHT22;11327;52.334;9.506;2022-11-15T17:13:59;12.00;99.90
22319;DHT22;11327;52.334;9.506;2022-11-15T17:17:20;12.00;99.90
22319;DHT22;11327;52.334;9.506;2022-11-15T17:20:41;12.00;99.90
22319;DHT22;11327;52.334;9.506;2022-11-15T17:24:03;11.90;99.90
22319;DHT22;11327;52.334;9.506;2022-11-15T17:27:24;11.80;99.90
22319;DHT22;11327;52.334;9.506;2022-11-15T17:30:45;11.80;99.90
22319;DHT22;11327;52.334;9.506;2022-11-15T17:34:06;11.80;99.90
22319;DHT22;11327;52.334;9.506;2022-11-15T17:37:27;11.80;99.90
22319;DHT22;11327;52.334;9.506;2022-11-15T17:40:48;11.80;99.90
22319;DHT22;11327;52.334;9.506;2022-11-15T17:44:09;11.80;99.90
22319;DHT22;11327;52.334;9.506;2022-11-15T17:47:29;11.70;99.90
22319;DHT22;11327;52.334;9.506;2022-11-15T17:50:59;11.60;99.90
22319;DHT22;11327;52.334;9.506;2022-11-15T17:54:20;11.60;99.90
22319;DHT22;11327;52.334;9.506;2022-11-15T17:57:42;11.50;99.90
22319;DHT22;11327;52.334;9.506;2022-11-15T18:01:09;11.60;99.90
22319;DHT22;11327;52.334;9.506;2022-11-15T18:04:30;11.50;99.90
22319;DHT22;11327;52.334;9.506;2022-11-15T18:07:51;11.50;99.90
22319;DHT22;11327;52.334;9.506;2022-11-15T18:14:41;11.50;99.90
22319;DHT22;11327;52.334;9.506;2022-11-15T18:18:02;11.60;99.90
22319;DHT22;11327;52.334;9.506;2022-11-15T18:21:28;11.60;99.90
22319;DHT22;11327;52.334;9.506;2022-11-15T18:24:47;11.50;99.90
22319;DHT22;11327;52.334;9.506;2022-11-15T18:28:08;11.50;99.90
22319;DHT22;11327;52.334;9.506;2022-11-15T18:31:30;11.50;99.90
22319;DHT22;11327;52.334;9.506;2022-11-15T18:34:51;11.50;99.90
22319;DHT22;11327;52.334;9.506;2022-11-15T18:38:11;11.50;99.90
22319;DHT22;11327;52.334;9.506;2022-11-15T18:41:33;11.60;99.90
22319;DHT22;11327;52.334;9.506;2022-11-15T18:44:54;11.60;99.90
22319;DHT22;11327;52.334;9.506;2022-11-15T18:48:15;11.60;99.90
22319;DHT22;11327;52.334;9.506;2022-11-15T18:51:36;11.60;99.90
22319;DHT22;11327;52.334;9.506;2022-11-15T18:54:57;11.60;99.90
22319;DHT22;11327;52.334;9.506;2022-11-15T18:58:18;11.60;99.90
22319;DHT22;11327;52.334;9.506;2022-11-15T19:01:42;11.60;99.90
22319;DHT22;11327;52.334;9.506;2022-11-15T19:05:06;11.70;99.90
22319;DHT22;11327;52.334;9.506;2022-11-15T19:08:27;11.60;99.90
22319;DHT22;11327;52.334;9.506;2022-11-15T19:11:48;11.70;99.90
22319;DHT22;11327;52.334;9.506;2022-11-15T19:15:11;11.80;99.90
22319;DHT22;11327;52.334;9.506;2022-11-15T19:18:32;11.70;99.90
22319;DHT22;11327;52.334;9.506;2022-11-15T19:21:53;11.80;99.90
22319;DHT22;11327;52.334;9.506;2022-11-15T19:25:16;11.90;99.90
22319;DHT22;11327;52.334;9.506;2022-11-15T19:28:38;11.80;99.90
22319;DHT22;11327;52.334;9.506;2022-11-15T19:31:59;11.90;99.90
22319;DHT22;11327;52.334;9.506;2022-11-15T19:35:21;12.10;99.90
22319;DHT22;11327;52.334;9.506;2022-11-15T19:38:43;12.10;99.90
22319;DHT22;11327;52.334;9.506;2022-11-15T19:42:04;12.00;99.90
22319;DHT22;11327;52.334;9.506;2022-11-15T19:45:25;11.90;99.90
22319;DHT22;11327;52.334;9.506;2022-11-15T19:48:46;12.00;99.90
22319;DHT22;11327;52.334;9.506;2022-11-15T19:52:07;12.00;99.90
22319;DHT22;11327;52.334;9.506;2022-11-15T19:55:28;12.00;99.90
22319;DHT22;11327;52.334;9.506;2022-11-15T19:58:52;12.10;99.90
22319;DHT22;11327;52.334;9.506;2022-11-15T20:02:13;12.10;99.90
22319;DHT22;11327;52.334;9.506;2022-11-15T20:05:34;12.10;99.90
22319;DHT22;11327;52.334;9.506;2022-11-15T20:08:55;12.10;99.90
22319;DHT22;11327;52.334;9.506;2022-11-15T20:12:16;12.10;99.90
22319;DHT22;11327;52.334;9.506;2022-11-15T20:15:37;12.10;99.90
22319;DHT22;11327;52.334;9.506;2022-11-15T20:18:59;12.10;99.90
22319;DHT22;11327;52.334;9.506;2022-11-15T20:22:20;12.20;99.90
22319;DHT22;11327;52.334;9.506;2022-11-15T20:25:45;12.10;99.90
22319;DHT22;11327;52.334;9.506;2022-11-15T20:29:06;12.20;99.90
22319;DHT22;11327;52.334;9.506;2022-11-15T20:32:30;12.10;99.90
22319;DHT22;11327;52.334;9.506;2022-11-15T20:35:51;12.20;99.90
22319;DHT22;11327;52.334;9.506;2022-11-15T20:39:12;12.20;99.90
22319;DHT22;11327;52.334;9.506;2022-11-15T20:42:33;12.20;99.90
22319;DHT22;11327;52.334;9.506;2022-11-15T20:45:54;12.20;99.90
22319;DHT22;11327;52.334;9.506;2022-11-15T20:49:15;12.20;99.90
22319;DHT22;11327;52.334;9.506;2022-11-15T20:52:36;12.20;99.90
22319;DHT22;11327;52.334;9.506;2022-11-15T20:56:01;12.20;99.90
22319;DHT22;11327;52.334;9.506;2022-11-15T20:59:21;12.20;99.90
22319;DHT22;11327;52.334;9.506;2022-11-15T21:02:42;12.20;99.90
22319;DHT22;11327;52.334;9.506;2022-11-15T21:06:04;12.20;99.90
22319;DHT22;11327;52.334;9.506;2022-11-15T21:09:25;12.30;99.90
22319;DHT22;11327;52.334;9.506;2022-11-15T21:13:04;12.30;99.90
22319;DHT22;11327;52.334;9.506;2022-11-15T21:16:25;12.30;99.90
22319;DHT22;11327;52.334;9.506;2022-11-15T21:19:46;12.30;99.90
22319;DHT22;11327;52.334;9.506;2022-11-15T21:23:07;12.40;99.90
22319;DHT22;11327;52.334;9.506;2022-11-15T21:26:28;12.40;99.90
22319;DHT22;11327;52.334;9.506;2022-11-15T21:29:49;12.40;99.90
22319;DHT22;11327;52.334;9.506;2022-11-15T21:33:10;12.40;99.90
22319;DHT22;11327;52.334;9.506;2022-11-15T21:36:31;12.40;99.90
22319;DHT22;11327;52.334;9.506;2022-11-15T21:39:52;12.50;99.90
22319;DHT22;11327;52.334;9.506;2022-11-15T21:43:13;12.40;99.90
22319;DHT22;11327;52.334;9.506;2022-11-15T21:46:34;12.40;99.90
22319;DHT22;11327;52.334;9.506;2022-11-15T21:49:56;12.50;99.90
22319;DHT22;11327;52.334;9.506;2022-11-15T21:53:17;12.40;99.90
22319;DHT22;11327;52.334;9.506;2022-11-15T21:56:38;12.40;99.90
22319;DHT22;11327;52.334;9.506;2022-11-15T22:00:01;12.30;99.90
22319;DHT22;11327;52.334;9.506;2022-11-15T22:03:41;12.30;99.90
22319;DHT22;11327;52.334;9.506;2022-11-15T22:07:02;12.10;99.90
22319;DHT22;11327;52.334;9.506;2022-11-15T22:10:23;12.10;99.90
22319;DHT22;11327;52.334;9.506;2022-11-15T22:13:44;12.00;99.90
22319;DHT22;11327;52.334;9.506;2022-11-15T22:17:05;12.00;99.90
22319;DHT22;11327;52.334;9.506;2022-11-15T22:20:26;11.90;99.90
22319;DHT22;11327;52.334;9.506;2022-11-15T22:23:50;11.80;99.90
22319;DHT22;11327;52.334;9.506;2022-11-15T22:27:11;11.80;99.90
22319;DHT22;11327;52.334;9.506;2022-11-15T22:30:32;11.80;99.90
22319;DHT22;11327;52.334;9.506;2022-11-15T22:33:53;11.70;99.90
22319;DHT22;11327;52.334;9.506;2022-11-15T22:37:14;11.70;99.90
22319;DHT22;11327;52.334;9.506;2022-11-15T22:40:36;11.70;99.90
22319;DHT22;11327;52.334;9.506;2022-11-15T22:43:57;11.60;99.90
22319;DHT22;11327;52.334;9.506;2022-11-15T22:47:18;11.60;99.90
22319;DHT22;11327;52.334;9.506;2022-11-15T22:50:39;11.50;99.90
22319;DHT22;11327;52.334;9.506;2022-11-15T22:54:00;11.50;99.90
22319;DHT22;11327;52.334;9.506;2022-11-15T22:57:21;11.60;99.90
22319;DHT22;11327;52.334;9.506;2022-11-15T23:00:42;11.60;99.90
22319;DHT22;11327;52.334;9.506;2022-11-15T23:04:03;11.50;99.90
22319;DHT22;11327;52.334;9.506;2022-11-15T23:07:24;11.50;99.90
22319;DHT22;11327;52.334;9.506;2022-11-15T23:10:46;11.40;99.90
22319;DHT22;11327;52.334;9.506;2022-11-15T23:14:25;11.30;99.90